Time;durP1;ratioP1;P1;durP2;ratioP2;P2;SDS_P1;SDS_P2;PMS_P1;PMS_P2;Temp;Humidity;BMP_temperature;BMP_pressure;BME280_temperature;BME280_humidity;BME280_pressure;Samples;Min_cycle;Max_cycle;Signal;HPM_P1;HPM_P2
2022/05/25 00:01:58;;;;;;;3.10;0.82;;;15.20;99.90;;;;;;5055458;28;19909;-65
2022/05/25 00:04:24;;;;;;;2.35;0.70;;;15.20;99.90;;;;;;5055998;28;20148;-65
2022/05/25 00:06:50;;;;;;;3.83;1.00;;;15.20;99.90;;;;;;5056044;28;20480;-65
2022/05/25 00:09:16;;;;;;;2.15;0.90;;;15.20;99.90;;;;;;5056359;28;20024;-65
2022/05/25 00:11:42;;;;;;;2.97;0.80;;;15.20;99.90;;;;;;5057243;28;20039;-65
2022/05/25 00:14:09;;;;;;;1.77;0.80;;;15.20;99.90;;;;;;5057757;28;20057;-66
2022/05/25 00:16:34;;;;;;;2.90;0.95;;;15.20;99.90;;;;;;5057929;28;20095;-65
2022/05/25 00:21:44;;;;;;;4.72;0.90;;;15.20;99.90;;;;;;5060210;28;20040;-66
2022/05/25 00:24:10;;;;;;;1.77;1.10;;;15.20;99.90;;;;;;5056459;28;20029;-66
2022/05/25 00:26:36;;;;;;;3.10;1.10;;;15.20;99.90;;;;;;5061250;28;20680;-66
2022/05/25 00:29:02;;;;;;;3.30;0.80;;;15.20;99.90;;;;;;5057778;28;20111;-66
2022/05/25 00:31:28;;;;;;;1.63;1.20;;;15.10;99.90;;;;;;5057285;28;20025;-65
2022/05/25 00:33:53;;;;;;;3.17;1.20;;;15.00;99.90;;;;;;5056583;28;20533;-64
2022/05/25 00:36:19;;;;;;;0.90;0.80;;;15.20;99.90;;;;;;5055963;28;20403;-65
2022/05/25 00:38:45;;;;;;;1.38;1.08;;;15.30;99.90;;;;;;5053569;28;20260;-65
2022/05/25 00:41:11;;;;;;;1.80;0.98;;;15.20;99.90;;;;;;5055520;28;20037;-65
2022/05/25 00:43:37;;;;;;;10.30;2.70;;;15.10;99.90;;;;;;5053723;28;20027;-65
2022/05/25 00:46:05;;;;;;;;;;;15.10;99.90;;;;;;5055595;28;20090;-65
2022/05/25 00:48:37;;;;;;;4.15;1.38;;;15.00;99.90;;;;;;5054556;28;20318;-65
2022/05/25 00:51:13;;;;;;;1.90;1.02;;;15.00;99.90;;;;;;5053312;28;20017;-65
2022/05/25 00:53:51;;;;;;;2.75;1.05;;;15.00;99.90;;;;;;5054412;28;20024;-66
2022/05/25 00:56:20;;;;;;;4.93;1.23;;;15.00;99.90;;;;;;5054261;28;20079;-66
2022/05/25 00:58:52;;;;;;;5.03;1.13;;;15.10;99.90;;;;;;5054792;28;20391;-66
2022/05/25 01:01:18;;;;;;;3.83;0.98;;;15.30;99.90;;;;;;5054761;28;20029;-66
2022/05/25 01:03:43;;;;;;;1.98;0.85;;;15.20;99.90;;;;;;5054299;28;20426;-66
2022/05/25 01:06:22;;;;;;;3.87;0.90;;;15.30;99.90;;;;;;5055800;28;20115;-65
2022/05/25 01:09:12;;;;;;;2.35;0.73;;;15.10;99.90;;;;;;5053281;28;20022;-64
2022/05/25 01:11:50;;;;;;;2.00;0.95;;;15.10;99.90;;;;;;5054855;28;20571;-65
2022/05/25 01:14:18;;;;;;;1.45;0.70;;;15.00;99.90;;;;;;5052788;28;20029;-65
2022/05/25 01:17:07;;;;;;;3.78;1.02;;;15.20;99.90;;;;;;5054652;28;20105;-65
2022/05/25 01:19:42;;;;;;;1.20;0.77;;;15.20;99.90;;;;;;5056639;28;20025;-65
2022/05/25 01:22:23;;;;;;;1.50;0.70;;;15.20;99.90;;;;;;5058537;28;20494;-65
2022/05/25 01:25:20;;;;;;;1.15;0.60;;;15.20;99.90;;;;;;5053837;28;20029;-65
2022/05/25 01:27:48;;;;;;;1.83;0.75;;;15.10;99.90;;;;;;5052308;28;20017;-65
2022/05/25 01:30:19;;;;;;;2.67;1.00;;;15.00;99.90;;;;;;5053915;28;20029;-65
2022/05/25 01:32:47;;;;;;;1.83;0.68;;;14.90;99.90;;;;;;5052634;28;20021;-65
2022/05/25 01:35:22;;;;;;;1.15;0.77;;;14.90;99.90;;;;;;5052914;28;20032;-66
2022/05/25 01:37:57;;;;;;;3.67;0.50;;;14.80;99.90;;;;;;5054240;28;20033;-65
2022/05/25 01:40:42;;;;;;;2.30;0.90;;;14.70;99.90;;;;;;5052714;28;20495;-66
2022/05/25 01:43:57;;;;;;;2.67;0.80;;;14.60;99.90;;;;;;5053422;28;20021;-65
2022/05/25 01:46:37;;;;;;;1.48;0.70;;;14.50;99.90;;;;;;5033907;22;20647;-67
2022/05/25 01:49:06;;;;;;;3.17;1.15;;;14.50;99.90;;;;;;5053476;28;20033;-67
2022/05/25 01:51:38;;;;;;;3.47;0.80;;;14.50;99.90;;;;;;5053597;28;20029;-69
2022/05/25 01:54:06;;;;;;;2.22;0.80;;;14.70;99.90;;;;;;5053527;28;20471;-67
2022/05/25 01:56:34;;;;;;;1.25;0.73;;;14.70;99.90;;;;;;5053423;28;20025;-67
2022/05/25 01:59:05;;;;;;;2.13;0.73;;;14.60;99.90;;;;;;5053581;28;20033;-68
2022/05/25 02:01:30;;;;;;;1.38;0.80;;;14.50;99.90;;;;;;5054341;28;20036;-67
2022/05/25 02:07:09;;;;;;;1.23;0.80;;;14.40;99.90;;;;;;5054828;28;20494;-67
2022/05/25 02:09:49;;;;;;;1.35;0.70;;;14.40;99.90;;;;;;5052165;28;20071;-67
2022/05/25 02:12:30;;;;;;;2.17;0.70;;;14.50;99.90;;;;;;5053516;28;20094;-67
2022/05/25 02:15:29;;;;;;;5.25;0.80;;;14.50;99.90;;;;;;5053270;28;20108;-67
2022/05/25 02:18:06;;;;;;;2.25;0.90;;;14.50;99.90;;;;;;5058996;28;20585;-67
2022/05/25 02:20:49;;;;;;;1.58;0.73;;;14.50;99.90;;;;;;5059460;28;20479;-67
2022/05/25 02:23:47;;;;;;;3.45;0.70;;;14.50;99.90;;;;;;5053474;28;20083;-67
2022/05/25 02:26:21;;;;;;;2.15;0.77;;;14.50;99.90;;;;;;5051771;28;20027;-67
2022/05/25 02:29:09;;;;;;;1.38;0.80;;;14.50;99.90;;;;;;5053353;28;20018;-67
2022/05/25 02:31:40;;;;;;;1.75;0.90;;;14.50;99.90;;;;;;5054148;28;20025;-67
2022/05/25 02:34:10;;;;;;;3.03;0.90;;;14.50;99.90;;;;;;5057364;28;20024;-67
2022/05/25 02:36:37;;;;;;;4.85;1.10;;;14.50;99.90;;;;;;5055637;28;20119;-67
2022/05/25 02:39:06;;;;;;;2.55;0.85;;;14.50;99.90;;;;;;5057020;28;20078;-67
2022/05/25 02:41:34;;;;;;;4.10;1.02;;;14.50;99.90;;;;;;5057512;28;20078;-66
2022/05/25 02:44:01;;;;;;;3.20;0.90;;;14.50;99.90;;;;;;5057113;28;20480;-66
2022/05/25 02:46:27;;;;;;;2.28;1.23;;;14.50;99.90;;;;;;5056644;28;20455;-66
2022/05/25 02:48:53;;;;;;;3.05;1.13;;;14.50;99.90;;;;;;5055605;28;20025;-66
2022/05/25 02:51:18;;;;;;;1.88;0.90;;;14.50;99.90;;;;;;5055470;28;20032;-66
2022/05/25 02:53:44;;;;;;;4.07;0.98;;;14.40;99.90;;;;;;5056683;28;20028;-66
2022/05/25 02:56:10;;;;;;;3.22;0.80;;;14.40;99.90;;;;;;5055500;28;20037;-66
2022/05/25 02:58:36;;;;;;;7.20;1.00;;;14.40;99.90;;;;;;5060035;28;20038;-66
2022/05/25 03:01:02;;;;;;;6.65;0.98;;;14.40;99.90;;;;;;5064763;28;20471;-66
2022/05/25 03:03:28;;;;;;;1.67;0.80;;;14.40;99.90;;;;;;5057078;28;20021;-66
2022/05/25 03:05:54;;;;;;;;;;;14.30;99.90;;;;;;5057155;28;20096;-67
2022/05/25 03:08:20;;;;;;;1.45;0.77;;;14.20;99.90;;;;;;5056594;28;19918;-67
2022/05/25 03:10:45;;;;;;;4.10;0.70;;;14.20;99.90;;;;;;5056661;28;20430;-67
2022/05/25 03:13:11;;;;;;;3.10;0.75;;;14.20;99.90;;;;;;5056590;28;20028;-67
2022/05/25 03:15:37;;;;;;;1.05;0.70;;;14.20;99.90;;;;;;5055998;28;20475;-66
2022/05/25 03:18:03;;;;;;;2.55;0.93;;;14.20;99.90;;;;;;5055872;28;20029;-67
2022/05/25 03:20:29;;;;;;;5.30;1.23;;;14.20;99.90;;;;;;5055936;28;20040;-68
2022/05/25 03:22:55;;;;;;;3.05;1.15;;;14.20;99.90;;;;;;5056029;28;20025;-68
2022/05/25 03:25:22;;;;;;;3.78;0.98;;;14.20;99.90;;;;;;5054591;28;20029;-67
2022/05/25 03:27:47;;;;;;;3.72;1.05;;;14.20;99.90;;;;;;5055083;28;20032;-67
2022/05/25 03:30:15;;;;;;;4.30;1.20;;;14.20;99.90;;;;;;5055742;28;20028;-67
2022/05/25 03:32:41;;;;;;;3.40;1.42;;;14.10;99.90;;;;;;5056222;28;20036;-67
2022/05/25 03:35:08;;;;;;;;;;;14.10;99.90;;;;;;5056711;28;20360;-69
2022/05/25 03:37:34;;;;;;;2.88;0.82;;;14.10;99.90;;;;;;5055461;28;20320;-67
2022/05/25 03:40:00;;;;;;;2.55;1.08;;;14.10;99.90;;;;;;5056447;28;20111;-66
2022/05/25 03:42:26;;;;;;;1.58;0.85;;;14.10;99.90;;;;;;5056467;28;20151;-67
2022/05/25 03:44:51;;;;;;;3.28;1.20;;;14.10;99.90;;;;;;5055713;28;20398;-67
2022/05/25 03:47:17;;;;;;;2.23;1.37;;;14.10;99.90;;;;;;5055475;28;20086;-67
2022/05/25 03:49:43;;;;;;;1.70;0.90;;;14.00;99.90;;;;;;5055518;28;20259;-68
2022/05/25 03:52:10;;;;;;;3.08;1.38;;;14.00;99.90;;;;;;5054163;28;20029;-66
2022/05/25 03:54:37;;;;;;;2.78;1.25;;;13.90;99.90;;;;;;5055306;28;20025;-67
2022/05/25 03:57:03;;;;;;;;;;;13.90;99.90;;;;;;5054359;28;20029;-67
2022/05/25 03:59:28;;;;;;;4.10;0.88;;;13.90;99.90;;;;;;5054577;28;19930;-67
2022/05/25 04:01:54;;;;;;;1.27;0.97;;;14.00;99.90;;;;;;5053945;28;20032;-67
2022/05/25 04:04:20;;;;;;;1.53;0.80;;;13.90;99.90;;;;;;5054951;28;20264;-67
2022/05/25 04:06:45;;;;;;;2.70;1.10;;;13.80;99.90;;;;;;5054115;28;20025;-67
2022/05/25 04:09:11;;;;;;;1.47;0.80;;;13.80;99.90;;;;;;5054934;28;20343;-67
2022/05/25 04:11:38;;;;;;;2.07;1.33;;;13.80;99.90;;;;;;5054817;28;20122;-67
2022/05/25 04:14:04;;;;;;;2.45;1.00;;;13.70;99.90;;;;;;5054816;28;20063;-67
2022/05/25 04:16:31;;;;;;;3.37;1.40;;;13.70;99.90;;;;;;5055104;28;20395;-67
2022/05/25 04:18:57;;;;;;;2.58;1.30;;;13.90;99.90;;;;;;5055150;28;20025;-66
2022/05/25 04:21:23;;;;;;;4.03;1.08;;;14.00;99.90;;;;;;5055329;28;20029;-67
2022/05/25 04:23:48;;;;;;;2.53;0.87;;;13.90;99.90;;;;;;5053798;28;20033;-67
2022/05/25 04:26:14;;;;;;;2.75;1.10;;;13.90;99.90;;;;;;5055335;28;20459;-66
2022/05/25 04:28:39;;;;;;;2.83;1.00;;;14.00;99.90;;;;;;5054925;28;20040;-67
2022/05/25 04:31:05;;;;;;;1.40;1.00;;;14.00;99.90;;;;;;5054854;28;20111;-67
2022/05/25 04:33:31;;;;;;;1.85;1.02;;;13.80;99.90;;;;;;5054731;28;20021;-67
2022/05/25 04:35:57;;;;;;;2.78;0.80;;;13.80;99.90;;;;;;5054653;28;20382;-67
2022/05/25 04:38:24;;;;;;;1.30;0.93;;;13.60;99.90;;;;;;5054521;28;20017;-67
2022/05/25 04:40:49;;;;;;;0.80;0.70;;;13.50;99.90;;;;;;5054867;28;20087;-68
2022/05/25 04:43:18;;;;;;;3.72;1.08;;;13.40;99.90;;;;;;5055156;28;20423;-67
2022/05/25 04:45:46;;;;;;;5.03;1.27;;;13.40;99.90;;;;;;5053258;28;20047;-66
2022/05/25 04:48:14;;;;;;;2.20;0.90;;;13.40;99.90;;;;;;5054520;28;20025;-66
2022/05/25 04:50:42;;;;;;;2.92;1.15;;;13.30;99.90;;;;;;5054394;28;20039;-67
2022/05/25 04:53:10;;;;;;;2.25;1.20;;;13.20;99.90;;;;;;5054392;28;20029;-66
2022/05/25 04:58:28;;;;;;;3.70;1.10;;;13.20;99.90;;;;;;5054928;28;20040;-65
2022/05/25 05:00:54;;;;;;;3.15;0.90;;;13.30;99.90;;;;;;5053421;28;20051;-63
2022/05/25 05:03:21;;;;;;;3.58;1.10;;;13.30;99.90;;;;;;5054054;28;20506;-66
2022/05/25 05:05:47;;;;;;;2.83;1.20;;;13.30;99.90;;;;;;5055711;28;20033;-64
2022/05/25 05:08:13;;;;;;;2.85;1.00;;;13.40;99.90;;;;;;5054309;28;20091;-64
2022/05/25 05:10:39;;;;;;;2.83;1.15;;;13.40;99.90;;;;;;5060379;28;20023;-66
2022/05/25 05:13:07;;;;;;;4.38;1.08;;;13.40;99.90;;;;;;5056305;28;20476;-65
2022/05/25 05:15:34;;;;;;;3.58;1.10;;;13.40;99.90;;;;;;5054677;28;20028;-66
2022/05/25 05:18:00;;;;;;;2.55;0.90;;;13.40;99.90;;;;;;5054037;28;20025;-65
2022/05/25 05:20:26;;;;;;;4.43;1.10;;;13.60;99.90;;;;;;5053840;28;20170;-65
2022/05/25 05:22:51;;;;;;;2.75;1.00;;;13.60;99.90;;;;;;5053795;28;20471;-65
2022/05/25 05:25:17;;;;;;;4.47;1.23;;;13.60;99.90;;;;;;5054411;28;20033;-65
2022/05/25 05:27:45;;;;;;;4.05;1.33;;;13.70;99.90;;;;;;5053626;28;20028;-65
2022/05/25 05:30:14;;;;;;;1.60;0.98;;;13.80;99.90;;;;;;5053765;28;20013;-64
2022/05/25 05:32:39;;;;;;;2.78;1.00;;;13.90;99.90;;;;;;5053670;28;20049;-64
2022/05/25 05:35:05;;;;;;;2.72;0.90;;;14.00;99.90;;;;;;5052222;28;20126;-65
2022/05/25 05:37:38;;;;;;;2.00;1.00;;;14.10;99.90;;;;;;5053517;28;20043;-64
2022/05/25 05:40:07;;;;;;;3.00;1.15;;;14.30;99.90;;;;;;5053779;28;20053;-66
2022/05/25 05:42:33;;;;;;;1.83;1.00;;;14.30;99.90;;;;;;5053544;28;20449;-66
2022/05/25 05:45:04;;;;;;;4.55;1.05;;;14.40;99.90;;;;;;5052032;28;20024;-66
2022/05/25 05:47:35;;;;;;;3.72;1.30;;;14.40;99.90;;;;;;5051876;28;20033;-66
2022/05/25 05:50:05;;;;;;;1.67;1.20;;;14.40;99.90;;;;;;5051858;28;20368;-66
2022/05/25 05:52:30;;;;;;;1.75;1.10;;;14.50;99.90;;;;;;5053054;28;20036;-65
2022/05/25 05:54:57;;;;;;;1.73;1.38;;;14.80;99.90;;;;;;5053322;28;20028;-66
2022/05/25 05:57:23;;;;;;;3.80;0.90;;;14.90;99.90;;;;;;5053364;28;20038;-65
2022/05/25 05:59:49;;;;;;;3.35;1.00;;;14.90;99.90;;;;;;5053838;28;20021;-65
2022/05/25 06:02:14;;;;;;;1.67;1.15;;;15.00;99.90;;;;;;5053714;28;20033;-66
2022/05/25 06:04:40;;;;;;;2.33;0.80;;;14.90;99.90;;;;;;5054079;28;20028;-64
2022/05/25 06:07:05;;;;;;;4.10;0.87;;;14.90;99.90;;;;;;5053492;28;20259;-66
2022/05/25 06:09:31;;;;;;;2.25;1.08;;;15.00;99.90;;;;;;5054975;28;20092;-66
2022/05/25 06:11:57;;;;;;;1.73;1.02;;;15.00;99.90;;;;;;5054792;28;20395;-66
2022/05/25 06:14:22;;;;;;;4.07;1.35;;;15.10;99.90;;;;;;5051938;28;20025;-65
2022/05/25 06:19:37;;;;;;;5.18;1.25;;;15.10;99.90;;;;;;5053439;28;20105;-65
2022/05/25 06:22:14;;;;;;;1.35;1.00;;;15.20;99.90;;;;;;5052727;28;20028;-66
2022/05/25 06:24:43;;;;;;;2.15;1.00;;;15.30;99.90;;;;;;5051806;28;20090;-66
2022/05/25 06:27:11;;;;;;;1.75;1.00;;;15.30;99.90;;;;;;5051595;28;20120;-68
2022/05/25 06:29:38;;;;;;;2.65;1.00;;;15.50;99.90;;;;;;5053142;28;20475;-66
2022/05/25 06:32:08;;;;;;;3.70;1.00;;;15.40;99.90;;;;;;5052912;28;20086;-66
2022/05/25 06:34:34;;;;;;;2.22;1.20;;;15.60;99.90;;;;;;5052602;28;20025;-66
2022/05/25 06:37:00;;;;;;;2.97;1.20;;;15.50;99.90;;;;;;5053031;28;20021;-66
2022/05/25 06:39:27;;;;;;;2.27;1.23;;;15.60;99.90;;;;;;5053019;28;20376;-67
2022/05/25 06:41:53;;;;;;;2.65;1.23;;;15.60;99.90;;;;;;5052473;28;20279;-67
2022/05/25 06:44:18;;;;;;;3.10;1.55;;;15.80;99.90;;;;;;5052772;28;20415;-67
2022/05/25 06:46:45;;;;;;;4.85;1.30;;;15.80;99.90;;;;;;5051772;28;20025;-68
2022/05/25 06:49:10;;;;;;;3.03;0.90;;;15.80;99.90;;;;;;5051588;28;20053;-66
2022/05/25 06:51:36;;;;;;;2.40;1.00;;;15.90;99.90;;;;;;5052719;28;20557;-67
2022/05/25 06:54:03;;;;;;;6.88;1.58;;;16.00;99.90;;;;;;5052600;28;20351;-67
2022/05/25 06:56:29;;;;;;;5.45;0.98;;;16.10;99.90;;;;;;5052824;28;20037;-67
2022/05/25 06:58:57;;;;;;;5.43;1.02;;;16.10;99.90;;;;;;5052782;28;20037;-68
2022/05/25 07:01:24;;;;;;;2.60;1.58;;;16.20;99.90;;;;;;5052929;28;20391;-66
2022/05/25 07:03:52;;;;;;;1.67;1.10;;;16.20;99.90;;;;;;5052697;28;20031;-66
2022/05/25 07:06:19;;;;;;;2.03;1.08;;;16.30;99.90;;;;;;5053977;28;20017;-67
2022/05/25 07:08:45;;;;;;;2.25;1.10;;;16.40;99.90;;;;;;5052016;28;20302;-67
2022/05/25 07:11:12;;;;;;;3.28;1.30;;;16.50;99.90;;;;;;5052601;28;20414;-68
2022/05/25 07:13:39;;;;;;;9.10;1.55;;;16.50;99.90;;;;;;5052835;28;20372;-67
2022/05/25 07:16:10;;;;;;;4.85;2.60;;;16.60;99.90;;;;;;5051356;28;20029;-67
2022/05/25 07:18:36;;;;;;;4.78;1.30;;;16.60;99.90;;;;;;5053927;28;20399;-67
2022/05/25 07:21:06;;;;;;;;;;;16.70;99.90;;;;;;5068965;28;20027;-67
2022/05/25 07:23:33;;;;;;;3.38;1.48;;;16.70;99.90;;;;;;5059294;28;20401;-67
2022/05/25 07:25:59;;;;;;;3.83;0.90;;;16.80;99.90;;;;;;5055198;28;20467;-67
2022/05/25 07:28:24;;;;;;;2.17;1.10;;;16.90;99.90;;;;;;5055221;28;20029;-66
2022/05/25 07:30:54;;;;;;;4.32;1.30;;;16.90;99.90;;;;;;5056451;28;20021;-67
2022/05/25 07:33:19;;;;;;;3.45;1.23;;;17.00;99.90;;;;;;5055930;28;20032;-67
2022/05/25 07:35:46;;;;;;;2.88;1.13;;;17.10;99.90;;;;;;5054930;28;20025;-69
2022/05/25 07:38:12;;;;;;;4.00;1.30;;;17.20;99.90;;;;;;5056085;28;20059;-67
2022/05/25 07:40:41;;;;;;;3.40;0.90;;;17.20;99.90;;;;;;5055619;28;20079;-68
2022/05/25 07:43:12;;;;;;;5.22;1.38;;;17.30;99.90;;;;;;5055636;28;20391;-68
2022/05/25 07:45:38;;;;;;;2.83;1.00;;;17.30;99.90;;;;;;5054750;28;20052;-68
2022/05/25 07:48:05;;;;;;;2.25;0.93;;;17.50;99.90;;;;;;5054770;28;20079;-68
2022/05/25 07:50:31;;;;;;;3.08;0.90;;;17.50;99.90;;;;;;5055669;28;20083;-68
2022/05/25 07:53:00;;;;;;;3.28;0.98;;;17.60;99.90;;;;;;5056072;28;20033;-68
2022/05/25 07:55:26;;;;;;;3.80;1.23;;;17.70;99.90;;;;;;5055971;28;20053;-68
2022/05/25 07:57:51;;;;;;;5.20;1.00;;;17.90;99.90;;;;;;5055564;28;20110;-68
2022/05/25 08:00:20;;;;;;;1.90;0.80;;;18.00;99.90;;;;;;5055239;28;20033;-68
2022/05/25 08:05:44;;;;;;;2.35;1.00;;;18.30;99.90;;;;;;5055017;28;20032;-67
2022/05/25 08:08:20;;;;;;;2.30;1.00;;;18.90;99.90;;;;;;5054814;28;20025;-68
2022/05/25 08:10:51;;;;;;;2.15;0.95;;;20.90;97.50;;;;;;5055125;28;20043;-68
2022/05/25 08:13:17;;;;;;;1.45;0.80;;;23.10;94.10;;;;;;5055278;28;20487;-68
2022/05/25 08:15:43;;;;;;;;;;;24.20;90.40;;;;;;5055346;28;20032;-67
2022/05/25 08:18:10;;;;;;;3.55;1.30;;;25.40;87.70;;;;;;5054893;28;19905;-69
2022/05/25 08:20:36;;;;;;;2.42;0.93;;;26.90;82.20;;;;;;5053516;28;20037;-68
2022/05/25 08:23:10;;;;;;;2.85;1.08;;;28.40;76.40;;;;;;5053705;28;20033;-68
2022/05/25 08:25:36;;;;;;;2.28;1.15;;;29.30;71.80;;;;;;5054739;28;20031;-67
2022/05/25 08:28:03;;;;;;;5.18;0.90;;;30.00;67.20;;;;;;5054781;28;20112;-67
2022/05/25 08:30:30;;;;;;;3.13;1.00;;;30.70;65.00;;;;;;5054139;28;20029;-68
2022/05/25 08:32:55;;;;;;;4.30;1.00;;;31.40;61.70;;;;;;5053400;28;20117;-68
2022/05/25 08:35:21;;;;;;;5.38;1.42;;;32.40;58.90;;;;;;5054876;28;20053;-69
2022/05/25 08:37:47;;;;;;;3.70;1.13;;;32.70;58.00;;;;;;5054673;28;20163;-69
2022/05/25 08:40:17;;;;;;;3.40;1.00;;;33.00;57.20;;;;;;5054469;28;20021;-68
2022/05/25 08:43:07;;;;;;;1.98;0.90;;;33.60;56.00;;;;;;5054297;28;20098;-67
2022/05/25 08:45:45;;;;;;;4.53;0.82;;;34.30;54.10;;;;;;5034354;28;20033;-68
2022/05/25 08:48:13;;;;;;;2.55;1.20;;;34.80;52.10;;;;;;5052863;28;20060;-68
2022/05/25 08:50:49;;;;;;;1.95;0.90;;;34.30;52.20;;;;;;5054649;28;20021;-68
2022/05/25 08:53:19;;;;;;;1.52;0.90;;;34.10;52.00;;;;;;5054509;28;20107;-69
2022/05/25 08:55:51;;;;;;;1.45;1.00;;;33.40;51.80;;;;;;5054166;28;20516;-68
2022/05/25 08:58:19;;;;;;;2.00;1.08;;;33.80;52.40;;;;;;5054184;28;20478;-67
2022/05/25 09:00:48;;;;;;;1.95;0.88;;;34.20;51.70;;;;;;5052708;28;20028;-68
2022/05/25 09:03:22;;;;;;;1.17;0.90;;;34.40;51.40;;;;;;5054150;28;20025;-68
2022/05/25 09:05:51;;;;;;;2.00;0.80;;;34.60;49.80;;;;;;5054029;28;20108;-68
2022/05/25 09:08:40;;;;;;;3.88;0.98;;;34.70;48.40;;;;;;5052284;28;20033;-68
2022/05/25 09:11:13;;;;;;;2.80;1.00;;;33.20;50.00;;;;;;5053566;28;20028;-68
2022/05/25 09:14:06;;;;;;;3.22;0.70;;;32.60;50.20;;;;;;5054077;28;20033;-68
2022/05/25 09:16:34;;;;;;;2.28;0.70;;;33.40;49.90;;;;;;5053942;28;20017;-68
2022/05/25 09:19:23;;;;;;;4.93;1.10;;;33.70;49.40;;;;;;5053916;28;20037;-68
2022/05/25 09:22:08;;;;;;;3.38;1.10;;;33.60;49.20;;;;;;5053536;28;20132;-69
2022/05/25 09:24:34;;;;;;;2.60;0.88;;;33.70;48.80;;;;;;5052469;28;20163;-68
2022/05/25 09:27:02;;;;;;;2.97;0.80;;;33.90;48.90;;;;;;5055033;28;20394;-68
2022/05/25 09:29:28;;;;;;;2.67;0.90;;;34.70;48.80;;;;;;5053679;28;20367;-67
2022/05/25 09:32:01;;;;;;;2.75;0.90;;;34.40;48.90;;;;;;5053636;28;20418;-68
2022/05/25 09:34:47;;;;;;;4.65;0.98;;;35.20;48.70;;;;;;5053626;28;20100;-69
2022/05/25 09:37:36;;;;;;;3.40;0.80;;;33.40;48.40;;;;;;5053497;28;20475;-68
2022/05/25 09:40:13;;;;;;;5.85;0.93;;;33.70;47.40;;;;;;5041226;28;20036;-69
2022/05/25 09:42:38;;;;;;;1.60;0.80;;;33.80;47.20;;;;;;5053415;28;20025;-66
2022/05/25 09:45:17;;;;;;;2.13;0.85;;;33.90;47.10;;;;;;5053230;28;20025;-68
2022/05/25 09:47:46;;;;;;;4.70;1.27;;;34.10;47.10;;;;;;5052933;28;20108;-68
2022/05/25 09:50:25;;;;;;;2.30;0.85;;;33.70;46.90;;;;;;5051463;28;20025;-69
2022/05/25 09:52:52;;;;;;;1.95;0.70;;;33.00;48.00;;;;;;5053106;28;20036;-68
2022/05/25 09:55:39;;;;;;;2.05;0.98;;;32.80;49.00;;;;;;5052855;28;20546;-69
2022/05/25 09:58:10;;;;;;;2.95;0.80;;;33.20;47.80;;;;;;5052815;28;20037;-68
2022/05/25 10:00:35;;;;;;;3.05;1.00;;;33.90;47.10;;;;;;5053409;28;20021;-68
2022/05/25 10:03:27;;;;;;;2.20;0.82;;;34.00;46.30;;;;;;5053179;28;20155;-68
2022/05/25 10:06:01;;;;;;;2.58;0.60;;;33.90;46.20;;;;;;5053312;28;20079;-69
2022/05/25 10:08:39;;;;;;;2.22;0.80;;;33.70;46.80;;;;;;5052931;28;20021;-68
2022/05/25 10:11:10;;;;;;;4.13;1.00;;;33.90;46.90;;;;;;5053396;28;20028;-68
2022/05/25 10:13:42;;;;;;;4.32;1.35;;;33.40;47.20;;;;;;5053511;28;20108;-69
2022/05/25 10:16:27;;;;;;;3.97;0.88;;;32.70;48.10;;;;;;5051950;28;20429;-67
2022/05/25 10:18:53;;;;;;;3.00;1.10;;;32.80;48.60;;;;;;5052423;28;20092;-67
2022/05/25 10:21:31;;;;;;;3.17;0.60;;;33.00;48.10;;;;;;5052328;28;20497;-69
2022/05/25 10:23:58;;;;;;;1.33;0.80;;;33.00;48.40;;;;;;5052200;28;20033;-69
2022/05/25 10:26:36;;;;;;;1.67;0.80;;;33.40;48.40;;;;;;5052513;28;20017;-68
2022/05/25 10:36:45;;;;;;;3.80;0.70;;;34.00;47.60;;;;;;5051357;28;20025;-67
2022/05/25 10:38:28;;;;;;;4.18;1.02;;;34.20;45.80;;;;;;5052411;28;20032;-68
2022/05/25 10:41:37;;;;;;;3.47;0.70;;;32.30;46.10;;;;;;5050913;28;20488;-68
2022/05/25 10:43:49;;;;;;;2.10;0.75;;;30.80;48.30;;;;;;5052118;28;20445;-68
2022/05/25 10:46:16;;;;;;;2.40;0.70;;;31.60;47.50;;;;;;5052379;28;20021;-67
2022/05/25 10:48:59;;;;;;;2.33;1.00;;;32.20;46.90;;;;;;5052790;28;20167;-68
2022/05/25 10:51:31;;;;;;;1.38;0.65;;;32.80;46.40;;;;;;5052401;28;20073;-68
2022/05/25 10:57:12;;;;;;;1.80;0.70;;;32.80;46.00;;;;;;5056542;28;20104;-69
2022/05/25 10:59:51;;;;;;;2.17;0.60;;;32.80;45.80;;;;;;5055150;28;20036;-68
2022/05/25 11:02:17;;;;;;;1.95;0.70;;;33.00;46.30;;;;;;5056359;28;20028;-67
2022/05/25 11:04:59;;;;;;;1.45;0.70;;;33.20;45.50;;;;;;5056025;28;20025;-67
2022/05/25 11:07:35;;;;;;;0.93;0.68;;;32.90;45.40;;;;;;5055909;28;20029;-68
2022/05/25 11:10:19;;;;;;;2.17;0.70;;;31.40;46.10;;;;;;5054750;28;20082;-67
2022/05/25 11:12:56;;;;;;;2.33;0.80;;;29.50;48.20;;;;;;5056413;28;20036;-68
2022/05/25 11:15:34;;;;;;;2.22;0.75;;;28.30;49.70;;;;;;5056040;28;20360;-68
2022/05/25 11:18:18;;;;;;;3.80;1.50;;;27.50;50.60;;;;;;5056035;28;20032;-68
2022/05/25 11:21:19;;;;;;;2.33;0.80;;;26.60;51.90;;;;;;5056662;28;20403;-68
2022/05/25 11:24:38;;;;;;;1.10;0.60;;;25.90;52.60;;;;;;5056645;28;20475;-67
2022/05/25 11:27:04;;;;;;;2.20;0.68;;;25.40;52.80;;;;;;5014236;28;20026;-67
2022/05/25 11:29:56;;;;;;;3.13;0.75;;;25.10;53.70;;;;;;5014432;28;20512;-69
2022/05/25 11:32:59;;;;;;;1.83;0.85;;;24.60;55.00;;;;;;5014390;28;20045;-68
2022/05/25 11:36:03;;;;;;;2.90;0.68;;;24.20;55.30;;;;;;5014123;28;20078;-68
2022/05/25 11:39:07;;;;;;;1.95;0.82;;;23.90;55.00;;;;;;5014336;28;20029;-68
2022/05/25 11:41:55;;;;;;;3.95;0.60;;;23.60;56.20;;;;;;5011220;28;20120;-67
2022/05/25 11:44:29;;;;;;;;;;;23.40;55.30;;;;;;5014505;28;20033;-67
2022/05/25 11:47:19;;;;;;;3.33;0.60;;;23.40;56.50;;;;;;5013925;28;19913;-67
2022/05/25 11:49:58;;;;;;;0.90;0.35;;;23.40;56.20;;;;;;5003607;28;20423;-68
2022/05/25 11:52:29;;;;;;;4.68;0.80;;;23.50;56.70;;;;;;5013795;28;20076;-68
2022/05/25 11:55:06;;;;;;;2.72;1.20;;;23.60;56.30;;;;;;5014463;28;20030;-67
2022/05/25 11:57:54;;;;;;;2.97;0.52;;;23.60;55.70;;;;;;5013869;28;20033;-67
2022/05/25 12:00:36;;;;;;;3.45;0.70;;;23.40;56.20;;;;;;5026940;28;20029;-67
2022/05/25 12:03:20;;;;;;;1.63;0.50;;;23.40;57.00;;;;;;5057389;28;20107;-68
2022/05/25 12:06:00;;;;;;;1.95;0.55;;;23.40;57.10;;;;;;5057321;28;20035;-67
2022/05/25 12:08:38;;;;;;;1.92;0.95;;;23.40;57.30;;;;;;5057766;28;20487;-67
2022/05/25 12:11:11;;;;;;;3.03;0.82;;;23.50;57.40;;;;;;5058871;28;20082;-68
2022/05/25 12:13:40;;;;;;;1.45;0.50;;;23.40;57.00;;;;;;5056701;28;20426;-68
2022/05/25 12:16:12;;;;;;;1.33;0.70;;;23.40;56.80;;;;;;5057741;28;20104;-68
2022/05/25 12:19:03;;;;;;;2.75;0.75;;;23.30;56.50;;;;;;5055207;28;20483;-68
2022/05/25 12:21:51;;;;;;;2.83;0.63;;;23.20;57.50;;;;;;5053871;28;20025;-68
2022/05/25 12:24:25;;;;;;;2.33;0.47;;;23.10;58.30;;;;;;5055312;28;20401;-68
2022/05/25 12:26:51;;;;;;;3.53;0.70;;;23.10;57.80;;;;;;5055218;28;20021;-68
2022/05/25 12:29:22;;;;;;;4.30;0.57;;;23.20;57.40;;;;;;5055652;28;20040;-68
2022/05/25 12:31:55;;;;;;;1.33;0.60;;;23.20;57.50;;;;;;5054919;28;20044;-67
2022/05/25 12:34:37;;;;;;;3.83;0.70;;;23.20;57.90;;;;;;5055972;28;20456;-69
2022/05/25 12:37:04;;;;;;;4.35;0.80;;;23.30;58.10;;;;;;5054738;28;20028;-67
2022/05/25 12:39:42;;;;;;;1.42;0.75;;;23.50;57.80;;;;;;5054818;28;20021;-67
2022/05/25 12:42:23;;;;;;;1.73;0.70;;;23.50;57.40;;;;;;5055467;28;20071;-67
2022/05/25 12:50:43;;;;;;;3.88;0.60;;;23.40;56.30;;;;;;5055015;28;20055;-68
2022/05/25 12:53:30;;;;;;;21.92;1.35;;;23.40;55.60;;;;;;5054831;28;20021;-67
2022/05/25 12:56:30;;;;;;;2.05;0.60;;;23.30;56.50;;;;;;5056898;28;20025;-67
2022/05/25 12:58:59;;;;;;;3.85;1.10;;;23.30;56.30;;;;;;5054950;28;20072;-67
2022/05/25 13:01:27;;;;;;;2.42;0.60;;;23.40;56.70;;;;;;5054630;28;20105;-67
2022/05/25 13:03:57;;;;;;;5.32;2.00;;;23.60;55.80;;;;;;5053340;28;20029;-69
2022/05/25 13:06:38;;;;;;;4.53;0.60;;;23.80;55.90;;;;;;5052727;28;20051;-68
2022/05/25 13:09:05;;;;;;;3.17;0.77;;;23.80;55.50;;;;;;5054410;28;20475;-68
2022/05/25 13:11:39;;;;;;;3.90;0.60;;;23.80;56.10;;;;;;5054224;28;20021;-67
2022/05/25 13:14:25;;;;;;;2.13;0.68;;;23.50;56.00;;;;;;5053945;28;20017;-68
2022/05/25 13:16:51;;;;;;;3.05;0.70;;;23.40;56.20;;;;;;5053342;28;20061;-67
2022/05/25 13:19:21;;;;;;;16.38;13.60;;;23.50;56.60;;;;;;5052568;28;20025;-67
2022/05/25 13:21:57;;;;;;;1.75;1.00;;;23.60;55.80;;;;;;5054019;28;20025;-69
2022/05/25 13:24:51;;;;;;;2.80;0.50;;;23.60;56.70;;;;;;5054233;28;20025;-68
2022/05/25 13:27:35;;;;;;;0.90;0.57;;;23.40;56.00;;;;;;5053487;28;20028;-67
2022/05/25 13:30:12;;;;;;;2.00;0.50;;;23.20;56.00;;;;;;5053991;28;20029;-69
2022/05/25 13:32:45;;;;;;;;;;;23.30;56.80;;;;;;5052653;28;20032;-67
2022/05/25 13:35:47;;;;;;;1.63;0.75;;;23.30;57.00;;;;;;5058446;28;20335;-68
2022/05/25 13:38:42;;;;;;;3.40;0.60;;;23.10;56.70;;;;;;5053318;28;20021;-68
2022/05/25 13:41:15;;;;;;;1.38;0.50;;;23.20;56.90;;;;;;5053419;28;20028;-67
2022/05/25 13:44:06;;;;;;;2.33;0.60;;;23.30;56.80;;;;;;5053869;28;20029;-68